createdAt,value
2019-05-30T00:00:30.024Z,6.30
2019-05-30T00:03:00.279Z,6.30
2019-05-30T00:05:30.365Z,6.40
2019-05-30T00:08:00.301Z,6.30
2019-05-30T00:10:30.102Z,6.20
2019-05-30T00:13:00.636Z,6.20
2019-05-30T00:15:30.153Z,6.00
2019-05-30T00:18:00.898Z,6.00
2019-05-30T00:20:30.341Z,5.90
2019-05-30T00:23:00.973Z,5.80
2019-05-30T00:25:30.803Z,5.80
2019-05-30T00:28:01.111Z,5.70
2019-05-30T00:30:30.905Z,5.70
2019-05-30T00:33:00.699Z,5.70
2019-05-30T00:35:30.107Z,5.80
2019-05-30T00:37:59.737Z,5.80
2019-05-30T00:40:29.237Z,5.80
2019-05-30T00:42:58.565Z,5.90
2019-05-30T00:45:27.981Z,5.80
2019-05-30T00:47:58.081Z,5.70
2019-05-30T00:50:27.532Z,5.70
2019-05-30T00:52:56.927Z,5.70
2019-05-30T00:55:26.373Z,5.60
2019-05-30T00:57:56.665Z,5.60
2019-05-30T01:00:42.958Z,5.70
2019-05-30T01:03:02.877Z,5.70
2019-05-30T01:05:31.147Z,5.60
2019-05-30T01:08:00.896Z,5.60
2019-05-30T01:10:31.052Z,5.60
2019-05-30T01:13:01.371Z,5.60
2019-05-30T01:15:30.836Z,5.60
2019-05-30T01:18:01.086Z,5.50
2019-05-30T01:20:30.755Z,5.40
2019-05-30T01:23:01.207Z,5.30
2019-05-30T01:25:30.842Z,5.30
2019-05-30T01:28:01.602Z,5.20
2019-05-30T01:30:31.362Z,5.20
2019-05-30T01:33:01.805Z,5.20
2019-05-30T01:35:31.225Z,5.20
2019-05-30T01:38:01.751Z,5.20
2019-05-30T01:40:31.379Z,5.20
2019-05-30T01:43:02.084Z,5.20
2019-05-30T01:45:32.021Z,5.20
2019-05-30T01:48:02.895Z,5.10
2019-05-30T01:50:32.328Z,5.10
2019-05-30T01:53:02.638Z,5.00
2019-05-30T01:55:32.187Z,5.10
2019-05-30T01:58:03.114Z,5.00
2019-05-30T02:00:40.549Z,5.00
2019-05-30T02:03:10.289Z,4.90
2019-05-30T02:05:39.647Z,4.90
2019-05-30T02:08:10.103Z,4.80
2019-05-30T02:10:40.062Z,4.70
2019-05-30T02:13:09.969Z,4.70
2019-05-30T02:15:40.272Z,4.70
2019-05-30T02:18:10.149Z,4.70
2019-05-30T02:20:39.594Z,4.80
2019-05-30T02:23:09.976Z,4.80
2019-05-30T02:25:39.924Z,4.80
2019-05-30T02:28:10.392Z,4.70
2019-05-30T02:30:40.045Z,4.70
2019-05-30T02:33:12.348Z,4.70
2019-05-30T02:35:40.869Z,4.60
2019-05-30T02:38:11.875Z,4.60
2019-05-30T02:40:41.180Z,4.50
2019-05-30T02:43:12.124Z,4.50
2019-05-30T02:45:41.706Z,4.50
2019-05-30T03:00:01.925Z,4.40
2019-05-30T05:03:11.192Z,8.60
2019-05-30T06:19:25.346Z,12.80
2019-05-30T07:01:22.047Z,14.20
2019-05-30T07:03:54.707Z,14.40
2019-05-30T07:06:27.519Z,14.50
2019-05-30T07:08:58.656Z,14.80
2019-05-30T07:11:29.290Z,14.90
2019-05-30T07:14:01.318Z,15.10
2019-05-30T07:16:31.422Z,15.20
2019-05-30T07:19:37.835Z,15.40
2019-05-30T07:26:25.692Z,16.00
2019-05-30T07:37:01.049Z,17.40
2019-05-30T07:39:33.263Z,17.80
2019-05-30T07:42:06.353Z,17.80
2019-05-30T07:44:30.880Z,18.10
2019-05-30T07:46:59.664Z,18.90
2019-05-30T07:49:28.459Z,18.40
2019-05-30T07:51:57.168Z,18.90
2019-05-30T07:54:26.854Z,19.10
2019-05-30T07:56:55.708Z,19.50
2019-05-30T07:59:24.429Z,19.60
2019-05-30T08:01:53.262Z,19.60
2019-05-30T08:04:22.062Z,19.60
2019-05-30T08:06:51.928Z,19.90
2019-05-30T08:09:20.714Z,20.30
2019-05-30T08:11:52.520Z,20.80
2019-05-30T08:14:21.657Z,20.80
2019-05-30T08:16:50.597Z,20.80
2019-05-30T08:19:19.696Z,20.80
2019-05-30T08:21:48.582Z,21.40
2019-05-30T08:24:17.851Z,21.50
2019-05-30T08:26:50.539Z,22.00
2019-05-30T08:29:19.510Z,21.60
2019-05-30T08:31:48.513Z,22.00
2019-05-30T08:34:17.771Z,22.10
2019-05-30T08:36:46.639Z,22.00
2019-05-30T08:39:15.703Z,22.40
2019-05-30T08:41:44.720Z,22.60
2019-05-30T08:44:13.699Z,23.00
2019-05-30T08:46:42.696Z,23.50
2019-05-30T08:49:11.585Z,23.40
2019-05-30T08:51:40.773Z,23.00
2019-05-30T08:54:13.455Z,23.10
2019-05-30T08:56:40.658Z,23.40
2019-05-30T08:59:09.927Z,23.70
2019-05-30T09:01:40.486Z,24.00
2019-05-30T09:04:17.391Z,23.90
2019-05-30T09:06:44.195Z,23.50
2019-05-30T09:09:13.353Z,23.70
2019-05-30T09:11:42.410Z,24.00
2019-05-30T09:14:11.290Z,23.90
2019-05-30T09:16:40.168Z,23.10
2019-05-30T09:19:09.085Z,23.70
2019-05-30T09:21:39.758Z,24.10
2019-05-30T09:24:11.116Z,24.70
2019-05-30T09:26:45.487Z,24.10
2019-05-30T09:29:19.003Z,25.00
2019-05-30T09:31:49.918Z,24.90
2019-05-30T09:34:21.522Z,25.10
2019-05-30T09:36:51.361Z,25.00
2019-05-30T09:43:10.056Z,24.60
2019-05-30T09:45:39.608Z,24.40
2019-05-30T09:48:10.096Z,24.70
2019-05-30T09:50:46.748Z,25.40
2019-05-30T09:53:19.173Z,24.80
2019-05-30T09:55:51.472Z,25.20
2019-05-30T09:58:21.595Z,25.60
2019-05-30T10:01:02.077Z,25.30
2019-05-30T10:07:11.044Z,25.20
2019-05-30T10:09:41.206Z,25.60
2019-05-30T10:12:10.542Z,25.70
2019-05-30T10:39:49.538Z,25.80
2019-05-30T10:42:23.782Z,25.90
2019-05-30T10:48:51.041Z,25.80
2019-05-30T10:54:51.485Z,26.80
2019-05-30T10:57:28.445Z,27.10
2019-05-30T11:00:16.424Z,26.60
2019-05-30T11:02:46.075Z,26.80
2019-05-30T11:05:17.491Z,27.20
2019-05-30T11:08:02.057Z,27.30
2019-05-30T11:10:40.415Z,27.30
2019-05-30T11:16:40.155Z,26.60
2019-05-30T11:19:11.325Z,26.70
2019-05-30T11:21:43.463Z,26.20
2019-05-30T11:24:14.763Z,26.20
2019-05-30T11:26:46.052Z,26.60
2019-05-30T11:29:16.436Z,27.40
2019-05-30T11:31:46.022Z,26.30
2019-05-30T11:34:17.302Z,26.90
2019-05-30T11:36:46.154Z,26.60
2019-05-30T11:39:15.872Z,26.00
2019-05-30T11:41:49.072Z,26.30
2019-05-30T11:44:28.468Z,26.50
2019-05-30T11:47:07.469Z,26.40
2019-05-30T11:49:42.702Z,26.20
2019-05-30T11:52:38.152Z,26.30
2019-05-30T11:55:10.686Z,26.50
2019-05-30T12:00:16.629Z,26.80
2019-05-30T12:09:38.661Z,27.20
2019-05-30T12:12:09.310Z,27.20
2019-05-30T12:14:38.210Z,27.20
2019-05-30T12:20:38.970Z,26.80
2019-05-30T12:23:07.973Z,27.60
2019-05-30T12:28:15.634Z,27.40
2019-05-30T12:30:56.689Z,28.40
2019-05-30T12:33:20.805Z,28.50
2019-05-30T12:35:54.380Z,28.40
2019-05-30T12:38:25.282Z,28.80
2019-05-30T12:40:54.722Z,28.50
2019-05-30T12:43:25.934Z,27.90
2019-05-30T12:45:54.961Z,27.50
2019-05-30T12:48:24.593Z,27.90
2019-05-30T12:50:53.598Z,28.30
2019-05-30T12:53:23.154Z,28.40
2019-05-30T12:55:54.834Z,27.40
2019-05-30T12:58:23.797Z,28.00
2019-05-30T13:00:54.944Z,28.50
2019-05-30T13:03:23.984Z,28.40
2019-05-30T13:05:55.060Z,28.20
2019-05-30T13:08:28.774Z,27.90
2019-05-30T13:10:59.724Z,27.80
2019-05-30T13:13:29.637Z,27.10
2019-05-30T13:20:26.135Z,28.00
2019-05-30T13:22:56.147Z,28.00
2019-05-30T13:25:30.154Z,27.30
2019-05-30T13:28:03.218Z,27.40
2019-05-30T13:30:30.098Z,27.80
2019-05-30T13:32:59.026Z,27.50
2019-05-30T13:35:28.108Z,27.50
2019-05-30T13:38:01.489Z,27.90
2019-05-30T13:40:30.662Z,28.00
2019-05-30T13:43:00.138Z,28.20
2019-05-30T13:45:29.004Z,27.60
2019-05-30T13:47:58.313Z,27.40
2019-05-30T13:50:30.864Z,27.20
2019-05-30T13:53:02.976Z,27.50
2019-05-30T13:55:33.169Z,27.80
2019-05-30T13:58:05.711Z,28.00
2019-05-30T14:00:35.876Z,28.00
2019-05-30T14:03:10.342Z,27.80
2019-05-30T14:05:39.401Z,27.60
2019-05-30T14:08:53.685Z,28.40
2019-05-30T14:11:22.682Z,28.00
2019-05-30T14:14:07.146Z,27.10
2019-05-30T14:23:03.817Z,28.10
2019-05-30T14:25:33.842Z,27.20
2019-05-30T14:28:12.110Z,27.80
2019-05-30T14:30:43.633Z,28.30
2019-05-30T14:33:14.553Z,27.90
2019-05-30T14:35:45.540Z,28.00
2019-05-30T14:38:20.819Z,27.60
2019-05-30T14:40:52.720Z,27.80
2019-05-30T14:43:23.871Z,27.50
2019-05-30T14:45:53.316Z,26.80
2019-05-30T14:48:23.710Z,26.30
2019-05-30T14:50:55.215Z,26.10
2019-05-30T14:53:30.388Z,26.30
2019-05-30T14:56:03.215Z,26.40
2019-05-30T14:58:34.246Z,25.80
2019-05-30T15:01:05.070Z,26.00
2019-05-30T15:03:36.124Z,26.00
2019-05-30T15:06:10.517Z,25.80
2019-05-30T15:08:40.331Z,25.40
2019-05-30T15:11:13.676Z,24.90
2019-05-30T15:13:49.304Z,25.00
2019-05-30T15:16:23.045Z,24.70
2019-05-30T15:19:04.709Z,24.80
2019-05-30T15:21:54.055Z,25.00
2019-05-30T15:24:26.916Z,25.10
2019-05-30T15:26:55.941Z,24.60
2019-05-30T15:29:32.340Z,24.30
2019-05-30T15:32:04.702Z,24.40
2019-05-30T15:34:34.209Z,24.50
2019-05-30T15:37:03.480Z,24.50
2019-05-30T15:39:34.526Z,24.40
2019-05-30T15:42:12.183Z,24.20
2019-05-30T15:44:41.875Z,24.20
2019-05-30T15:47:11.995Z,24.10
2019-05-30T15:49:45.810Z,24.30
2019-05-30T15:52:17.574Z,24.30
2019-05-30T15:54:49.165Z,24.00
2019-05-30T15:57:25.090Z,23.80
2019-05-30T15:59:53.937Z,24.00
2019-05-30T16:02:22.896Z,23.80
2019-05-30T16:04:52.599Z,23.80
2019-05-30T16:10:52.907Z,23.40
2019-05-30T16:13:22.079Z,23.50
2019-05-30T16:15:51.533Z,23.50
2019-05-30T16:18:27.712Z,23.10
2019-05-30T16:35:32.021Z,23.10
2019-05-30T16:38:01.058Z,22.90
2019-05-30T16:40:32.930Z,22.70
2019-05-30T16:43:04.450Z,22.50
2019-05-30T16:46:16.291Z,22.50
2019-05-30T16:53:37.516Z,22.50
2019-05-30T17:07:06.835Z,22.40
2019-05-30T17:25:08.311Z,22.40
2019-05-30T17:34:41.597Z,22.10
2019-05-30T17:37:22.234Z,21.70
2019-05-30T17:40:18.514Z,21.60
2019-05-30T17:44:03.444Z,21.40
2019-05-30T17:50:29.774Z,21.10
2019-05-30T17:52:59.800Z,21.00
2019-05-30T18:03:10.753Z,20.70
2019-05-30T18:09:55.142Z,20.80
2019-05-30T18:19:41.622Z,20.30
2019-05-30T18:22:09.302Z,20.30
2019-05-30T18:28:10.360Z,20.20
2019-05-30T18:31:00.333Z,20.10
2019-05-30T19:39:25.559Z,17.30
2019-05-30T20:12:51.851Z,16.70
2019-05-30T20:43:39.015Z,16.50
2019-05-30T20:46:22.356Z,16.40
2019-05-30T20:48:41.067Z,16.30
2019-05-30T20:51:20.691Z,16.20
2019-05-30T20:53:41.244Z,16.20
2019-05-30T20:56:12.056Z,16.20
2019-05-30T20:58:41.801Z,16.00
2019-05-30T21:01:10.675Z,16.00
2019-05-30T21:03:39.765Z,16.00
2019-05-30T21:06:11.037Z,16.00
2019-05-30T21:08:41.265Z,15.90
2019-05-30T21:11:12.278Z,15.90
2019-05-30T21:13:42.339Z,15.90
2019-05-30T21:16:13.551Z,15.80
2019-05-30T21:18:46.064Z,15.70
2019-05-30T21:21:15.266Z,15.70
2019-05-30T21:23:46.641Z,15.60
2019-05-30T21:26:15.969Z,15.60
2019-05-30T21:28:48.693Z,15.50
2019-05-30T21:31:18.222Z,15.30
2019-05-30T21:33:48.262Z,15.30
2019-05-30T21:36:17.982Z,15.30
2019-05-30T21:38:55.210Z,15.30
2019-05-30T21:52:20.960Z,15.20
2019-05-30T21:54:50.280Z,15.30
2019-05-30T21:57:21.308Z,15.20
2019-05-30T21:59:50.822Z,15.10
2019-05-30T22:02:21.474Z,15.20
2019-05-30T22:04:50.823Z,15.20
2019-05-30T22:07:21.347Z,15.20
2019-05-30T22:09:52.591Z,15.20
2019-05-30T22:12:21.460Z,15.20
2019-05-30T22:14:51.992Z,15.10
2019-05-30T22:17:21.016Z,15.00
2019-05-30T22:19:50.142Z,15.00
2019-05-30T22:22:19.108Z,15.00
2019-05-30T22:24:48.502Z,15.10
2019-05-30T22:27:17.471Z,15.10
2019-05-30T22:29:46.442Z,15.00
2019-05-30T22:32:15.353Z,14.80
2019-05-30T22:34:46.714Z,14.80
2019-05-30T22:37:16.123Z,14.70
2019-05-30T22:39:44.963Z,14.60
2019-05-30T22:42:15.027Z,14.50
2019-05-30T22:44:44.011Z,14.50
2019-05-30T22:47:13.065Z,14.50
2019-05-30T22:49:41.959Z,14.40
2019-05-30T22:52:10.846Z,14.60
2019-05-30T22:54:39.909Z,14.60
2019-05-30T22:57:08.804Z,14.50
2019-05-30T22:59:37.664Z,14.50
2019-05-30T23:02:06.620Z,14.40
2019-05-30T23:04:35.820Z,14.30
2019-05-30T23:07:04.815Z,14.40
2019-05-30T23:09:33.772Z,14.40
2019-05-30T23:12:02.557Z,14.40
2019-05-30T23:14:31.661Z,14.40
2019-05-30T23:17:00.637Z,14.30
2019-05-30T23:19:29.501Z,14.30
2019-05-30T23:21:58.606Z,14.30
2019-05-30T23:24:27.785Z,14.20
2019-05-30T23:26:57.853Z,14.20
2019-05-30T23:29:27.249Z,14.10
2019-05-30T23:31:56.236Z,14.10
2019-05-30T23:34:25.128Z,14.10
2019-05-30T23:36:54.556Z,14.00
2019-05-30T23:39:23.607Z,14.00
2019-05-30T23:41:52.939Z,14.00
2019-05-30T23:44:22.109Z,14.00
2019-05-30T23:46:51.463Z,14.20
2019-05-30T23:49:20.542Z,14.10
2019-05-30T23:51:51.943Z,14.10
2019-05-30T23:54:21.134Z,14.10
2019-05-30T23:56:50.507Z,14.30
2019-05-30T23:59:19.796Z,14.20
